createdAt,value
2024-04-06T00:00:23.649Z,9.430309
2024-04-06T00:01:23.638Z,9.430303
2024-04-06T00:02:23.594Z,9.430367
2024-04-06T00:03:26.098Z,9.430355
2024-04-06T00:04:24.937Z,9.430344
2024-04-06T00:05:23.593Z,9.430342
2024-04-06T00:06:23.551Z,9.430324
2024-04-06T00:07:23.545Z,9.430337
2024-04-06T00:08:23.577Z,9.430376
2024-04-06T00:09:23.583Z,9.430383
2024-04-06T00:10:23.561Z,9.430307
2024-04-06T00:11:23.533Z,9.430266
2024-04-06T00:12:23.517Z,9.430330
2024-04-06T00:13:23.495Z,9.430355
2024-04-06T00:14:23.533Z,9.430369
2024-04-06T00:15:23.491Z,9.430369
2024-04-06T00:16:23.455Z,9.430341
2024-04-06T00:17:23.526Z,9.430371
2024-04-06T00:18:23.463Z,9.430349
2024-04-06T00:19:23.447Z,9.430350
2024-04-06T00:20:23.485Z,9.430357
2024-04-06T00:21:23.407Z,9.430360
2024-04-06T00:22:23.382Z,9.430386
2024-04-06T00:23:23.390Z,9.430402
2024-04-06T00:24:23.347Z,9.430409
2024-04-06T00:25:23.387Z,9.430387
2024-04-06T00:26:23.343Z,9.430426
2024-04-06T00:27:23.377Z,9.430400
2024-04-06T00:28:23.355Z,9.430403
2024-04-06T00:29:23.372Z,9.430403
2024-04-06T00:30:23.279Z,9.430386
2024-04-06T00:31:23.285Z,9.430346
2024-04-06T00:32:23.309Z,9.430346
2024-04-06T00:33:23.271Z,9.430317
2024-04-06T00:34:23.256Z,9.430313
2024-04-06T00:35:23.309Z,9.430358
2024-04-06T00:36:23.279Z,9.430356
2024-04-06T00:37:23.236Z,9.430349
2024-04-06T00:38:23.232Z,9.430346
2024-04-06T00:39:23.172Z,9.430343
2024-04-06T00:40:23.180Z,9.430327
2024-04-06T00:41:23.195Z,9.430365
2024-04-06T00:42:23.159Z,9.430348
2024-04-06T00:43:23.145Z,9.430338
2024-04-06T00:44:23.139Z,9.430339
2024-04-06T00:45:23.139Z,9.430337
2024-04-06T00:46:23.153Z,9.430359
2024-04-06T00:47:23.099Z,9.430343
2024-04-06T00:48:23.116Z,9.430363
2024-04-06T00:49:23.047Z,9.430370
2024-04-06T00:50:23.100Z,9.430355
2024-04-06T00:51:23.097Z,9.430354
2024-04-06T00:52:23.050Z,9.430389
2024-04-06T00:53:23.023Z,9.430406
2024-04-06T00:54:23.045Z,9.430378
2024-04-06T00:55:23.033Z,9.430371
2024-04-06T00:56:23.043Z,9.430388
2024-04-06T00:57:22.997Z,9.430363
2024-04-06T00:58:22.993Z,9.430386
2024-04-06T00:59:23.014Z,9.430395
2024-04-06T01:00:22.930Z,9.430394
2024-04-06T01:01:24.417Z,9.430422
2024-04-06T01:02:23.952Z,9.430438
2024-04-06T01:03:22.899Z,9.430379
2024-04-06T01:04:22.898Z,9.430373
2024-04-06T01:05:22.916Z,9.430386
2024-04-06T01:06:22.881Z,9.430384
2024-04-06T01:07:22.872Z,9.430397
2024-04-06T01:08:22.863Z,9.430363
2024-04-06T01:09:22.836Z,9.430398
2024-04-06T01:10:22.873Z,9.430372
2024-04-06T01:11:22.862Z,9.430324
2024-04-06T01:12:22.844Z,9.430363
2024-04-06T01:13:22.822Z,9.430359
2024-04-06T01:14:22.827Z,9.430361
2024-04-06T01:15:22.794Z,9.430333
2024-04-06T01:16:22.813Z,9.430370
2024-04-06T01:17:22.805Z,9.430416
2024-04-06T01:18:22.741Z,9.430387
2024-04-06T01:19:22.722Z,9.430409
2024-04-06T01:20:22.720Z,9.430352
2024-04-06T01:21:22.736Z,9.430422
2024-04-06T01:22:22.674Z,9.430352
2024-04-06T01:23:22.688Z,9.430377
2024-04-06T01:24:22.681Z,9.430379
2024-04-06T01:25:22.685Z,9.430389
2024-04-06T01:26:22.716Z,9.430387
2024-04-06T01:27:22.652Z,9.430417
2024-04-06T01:28:22.655Z,9.430413
2024-04-06T01:29:23.197Z,9.430421
2024-04-06T01:30:22.622Z,9.430406
2024-04-06T01:31:22.603Z,9.430376
2024-04-06T01:32:22.629Z,9.430393
2024-04-06T01:33:22.572Z,9.430377
2024-04-06T01:34:22.582Z,9.430366
2024-04-06T01:35:22.638Z,9.430397
2024-04-06T01:36:22.521Z,9.430430
2024-04-06T01:37:22.547Z,9.430419
2024-04-06T01:38:22.525Z,9.430364
2024-04-06T01:39:22.553Z,9.430386
2024-04-06T01:40:22.479Z,9.430351
2024-04-06T01:41:22.525Z,9.430370
2024-04-06T01:42:22.492Z,9.430316
2024-04-06T01:43:22.473Z,9.430334
2024-04-06T01:44:22.499Z,9.430335
2024-04-06T01:45:22.452Z,9.430291
2024-04-06T01:46:22.432Z,9.430376
2024-04-06T01:47:22.571Z,9.430378
2024-04-06T01:48:22.412Z,9.430318
2024-04-06T01:49:22.384Z,9.430330
2024-04-06T01:50:22.437Z,9.430365
2024-04-06T01:51:22.357Z,9.430362
2024-04-06T01:52:22.377Z,9.430347
2024-04-06T01:53:22.392Z,9.430376
2024-04-06T01:54:22.378Z,9.430394
2024-04-06T01:55:22.337Z,9.430376
2024-04-06T01:56:22.330Z,9.430384
2024-04-06T01:57:22.298Z,9.430406
2024-04-06T01:58:22.256Z,9.430422
2024-04-06T01:59:22.341Z,9.430343
2024-04-06T02:00:22.293Z,9.430359
2024-04-06T02:01:22.246Z,9.430348
2024-04-06T02:02:22.228Z,9.430334
2024-04-06T02:03:22.248Z,9.430353
2024-04-06T02:04:22.232Z,9.430340
2024-04-06T02:05:22.214Z,9.430371
2024-04-06T02:06:22.222Z,9.430326
2024-04-06T02:07:22.166Z,9.430351
2024-04-06T02:08:22.149Z,9.430363
2024-04-06T02:09:22.164Z,9.430360
2024-04-06T02:10:22.219Z,9.430285
2024-04-06T02:11:22.112Z,9.430377
2024-04-06T02:12:22.104Z,9.430346
2024-04-06T02:13:22.102Z,9.430353
2024-04-06T02:14:22.091Z,9.430333
2024-04-06T02:15:22.116Z,9.430373
2024-04-06T02:16:22.067Z,9.430386
2024-04-06T02:17:22.054Z,9.430367
2024-04-06T02:18:22.039Z,9.430362
2024-04-06T02:19:22.057Z,9.430356
2024-04-06T02:20:22.074Z,9.430354
2024-04-06T02:21:22.062Z,9.430383
2024-04-06T02:22:21.989Z,9.430438
2024-04-06T02:23:22.003Z,9.430454
2024-04-06T02:24:21.947Z,9.430464
2024-04-06T02:25:21.965Z,9.430440
2024-04-06T02:26:22.000Z,9.430383
2024-04-06T02:27:21.963Z,9.430347
2024-04-06T02:28:21.932Z,9.430356
2024-04-06T02:29:22.941Z,9.430325
2024-04-06T02:30:21.915Z,9.430366
2024-04-06T02:31:21.893Z,9.430346
2024-04-06T02:32:21.878Z,9.430387
2024-04-06T02:33:21.865Z,9.430308
2024-04-06T02:34:21.835Z,9.430303
2024-04-06T02:35:21.860Z,9.430348
2024-04-06T02:36:21.867Z,9.430352
2024-04-06T02:37:21.844Z,9.430363
2024-04-06T02:38:21.826Z,9.430360
2024-04-06T02:39:21.818Z,9.430381
2024-04-06T02:40:21.759Z,9.430434
2024-04-06T02:41:21.801Z,9.430466
2024-04-06T02:42:21.790Z,9.430507
2024-04-06T02:43:21.712Z,9.430453
2024-04-06T02:44:21.714Z,9.430445
2024-04-06T02:45:21.745Z,9.430410
2024-04-06T02:46:21.712Z,9.430401
2024-04-06T02:47:21.716Z,9.430420
2024-04-06T02:48:21.695Z,9.430411
2024-04-06T02:49:21.675Z,9.430371
2024-04-06T02:50:22.650Z,9.430367
2024-04-06T02:51:21.612Z,9.430400
2024-04-06T02:52:21.669Z,9.430425
2024-04-06T02:53:21.640Z,9.430430
2024-04-06T02:54:21.605Z,9.430454
2024-04-06T02:55:21.595Z,9.430429
2024-04-06T02:56:21.591Z,9.430409
2024-04-06T02:57:21.554Z,9.430345
2024-04-06T02:58:21.557Z,9.430384
2024-04-06T02:59:21.559Z,9.430423
2024-04-06T03:00:21.564Z,9.430419
2024-04-06T03:01:21.506Z,9.430381
2024-04-06T03:02:21.512Z,9.430369
2024-04-06T03:03:21.585Z,9.430354
2024-04-06T03:04:21.480Z,9.430349
2024-04-06T03:05:21.502Z,9.430348
2024-04-06T03:06:21.468Z,9.430351
2024-04-06T03:07:21.485Z,9.430331
2024-04-06T03:08:21.467Z,9.430359
2024-04-06T03:09:21.469Z,9.430354
2024-04-06T03:10:21.420Z,9.430356
2024-04-06T03:11:21.415Z,9.430348
2024-04-06T03:12:21.372Z,9.430340
2024-04-06T03:13:21.386Z,9.430316
2024-04-06T03:14:21.399Z,9.430323
2024-04-06T03:15:21.341Z,9.430358
2024-04-06T03:16:21.397Z,9.430357
2024-04-06T03:17:21.342Z,9.430347
2024-04-06T03:18:21.327Z,9.430376
2024-04-06T03:19:21.314Z,9.430363
2024-04-06T03:20:21.327Z,9.430364
2024-04-06T03:21:21.318Z,9.430378
2024-04-06T03:22:21.311Z,9.430348
2024-04-06T03:23:21.273Z,9.430316
2024-04-06T03:24:21.255Z,9.430314
2024-04-06T03:25:21.266Z,9.430346
2024-04-06T03:26:21.224Z,9.430338
2024-04-06T03:27:21.218Z,9.430374
2024-04-06T03:28:21.384Z,9.430342
2024-04-06T03:29:22.175Z,9.430335
2024-04-06T03:30:21.179Z,9.430358
2024-04-06T03:31:21.172Z,9.430320
2024-04-06T03:32:21.162Z,9.430326
2024-04-06T03:33:21.134Z,9.430299
2024-04-06T03:34:21.109Z,9.430326
2024-04-06T03:35:21.120Z,9.430324
2024-04-06T03:36:22.183Z,9.430335
2024-04-06T03:37:21.089Z,9.430387
2024-04-06T03:38:21.074Z,9.430338
2024-04-06T03:39:21.089Z,9.430346
2024-04-06T03:40:21.074Z,9.430403
2024-04-06T03:41:21.049Z,9.430370
2024-04-06T03:42:21.030Z,9.430376
2024-04-06T03:43:21.017Z,9.430347
2024-04-06T03:44:21.021Z,9.430338
2024-04-06T03:45:21.000Z,9.430352
2024-04-06T03:46:20.995Z,9.430328
2024-04-06T03:47:20.970Z,9.430376
2024-04-06T03:48:20.959Z,9.430390
2024-04-06T03:49:20.967Z,9.430404
2024-04-06T03:50:20.968Z,9.430360
2024-04-06T03:51:20.941Z,9.430362
2024-04-06T03:52:21.077Z,9.430387
2024-04-06T03:53:20.946Z,9.430403
2024-04-06T03:54:20.916Z,9.430426
2024-04-06T03:55:20.906Z,9.430307
2024-04-06T03:56:20.862Z,9.430387
2024-04-06T03:57:20.899Z,9.430374
2024-04-06T03:58:20.857Z,9.430377
2024-04-06T03:59:20.810Z,9.430345
2024-04-06T04:00:20.818Z,9.430378
2024-04-06T04:01:20.842Z,9.430358
2024-04-06T04:02:20.830Z,9.430371
2024-04-06T04:03:20.814Z,9.430390
2024-04-06T04:04:20.799Z,9.430376
2024-04-06T04:05:20.771Z,9.430360
2024-04-06T04:06:20.755Z,9.430362
2024-04-06T04:07:20.743Z,9.430380
2024-04-06T04:08:20.737Z,9.430336
2024-04-06T04:09:20.752Z,9.430347
2024-04-06T04:10:20.714Z,9.430301
2024-04-06T04:11:20.681Z,9.430308
2024-04-06T04:12:21.753Z,9.430290
2024-04-06T04:13:20.961Z,9.430405
2024-04-06T04:14:20.671Z,9.430359
2024-04-06T04:15:20.637Z,9.430388
2024-04-06T04:16:21.544Z,9.430366
2024-04-06T04:17:20.616Z,9.430346
2024-04-06T04:18:20.617Z,9.430325
2024-04-06T04:19:20.668Z,9.430343
2024-04-06T04:20:20.679Z,9.430380
2024-04-06T04:21:20.592Z,9.430397
2024-04-06T04:22:20.542Z,9.430348
2024-04-06T04:23:21.557Z,9.430325
2024-04-06T04:24:20.566Z,9.430351
2024-04-06T04:25:20.544Z,9.430330
2024-04-06T04:26:20.535Z,9.430305
2024-04-06T04:27:20.528Z,9.430323
2024-04-06T04:28:20.511Z,9.430381
2024-04-06T04:29:20.479Z,9.430366
2024-04-06T04:30:20.454Z,9.430367
2024-04-06T04:31:20.454Z,9.430351
2024-04-06T04:32:20.438Z,9.430346
2024-04-06T04:33:20.841Z,9.430365
2024-04-06T04:34:20.406Z,9.430330
2024-04-06T04:35:20.437Z,9.430328
2024-04-06T04:36:20.414Z,9.430354
2024-04-06T04:37:20.401Z,9.430355
2024-04-06T04:38:20.422Z,9.430364
2024-04-06T04:39:20.362Z,9.430358
2024-04-06T04:40:20.373Z,9.430376
2024-04-06T04:41:20.333Z,9.430362
2024-04-06T04:42:20.327Z,9.430338
2024-04-06T04:43:20.359Z,9.430330
2024-04-06T04:44:35.736Z,9.430336
2024-04-06T04:45:22.347Z,9.430364
2024-04-06T04:46:20.284Z,9.430358
2024-04-06T04:47:20.314Z,9.430332
2024-04-06T04:48:20.265Z,9.430369
2024-04-06T04:49:20.284Z,9.430365
2024-04-06T04:50:20.276Z,9.430362
2024-04-06T04:51:20.217Z,9.430343
2024-04-06T04:52:20.237Z,9.430357
2024-04-06T04:53:20.199Z,9.430357
2024-04-06T04:54:20.213Z,9.430377
2024-04-06T04:55:20.773Z,9.430337
2024-04-06T04:56:20.173Z,9.430349
2024-04-06T04:57:20.149Z,9.430324
2024-04-06T04:58:20.136Z,9.430335
2024-04-06T04:59:20.139Z,9.430333
2024-04-06T05:00:20.135Z,9.430321
2024-04-06T05:01:20.108Z,9.430332
2024-04-06T05:02:20.118Z,9.430373
2024-04-06T05:03:20.101Z,9.430370
2024-04-06T05:04:20.087Z,9.430338
2024-04-06T05:05:20.073Z,9.430365
2024-04-06T05:06:20.060Z,9.430342
2024-04-06T05:07:20.049Z,9.430367
2024-04-06T05:08:21.016Z,9.430373
2024-04-06T05:09:20.001Z,9.430314
2024-04-06T05:10:19.993Z,9.430380
2024-04-06T05:11:20.069Z,9.430360
2024-04-06T05:12:19.955Z,9.430311
2024-04-06T05:13:19.972Z,9.430352
2024-04-06T05:14:19.945Z,9.430331
2024-04-06T05:15:19.958Z,9.430399
2024-04-06T05:16:19.976Z,9.430366
2024-04-06T05:17:19.951Z,9.430343
2024-04-06T05:18:19.902Z,9.430367
2024-04-06T05:19:19.987Z,9.430358
2024-04-06T05:20:19.868Z,9.430364
2024-04-06T05:21:19.906Z,9.430382
2024-04-06T05:22:19.838Z,9.430364
2024-04-06T05:23:19.857Z,9.430338
2024-04-06T05:24:19.835Z,9.430325
2024-04-06T05:25:19.831Z,9.430373
2024-04-06T05:26:19.817Z,9.430396
2024-04-06T05:27:19.802Z,9.430370
2024-04-06T05:28:19.798Z,9.430349
2024-04-06T05:29:19.777Z,9.430376
2024-04-06T05:30:19.785Z,9.430399
2024-04-06T05:31:19.730Z,9.430413
2024-04-06T05:32:19.752Z,9.430415
2024-04-06T05:33:19.803Z,9.430416
2024-04-06T05:34:19.762Z,9.430408
2024-04-06T05:35:19.712Z,9.430434
2024-04-06T05:36:19.674Z,9.430403
2024-04-06T05:37:19.670Z,9.430365
2024-04-06T05:38:19.663Z,9.430365
2024-04-06T05:39:19.700Z,9.430381
2024-04-06T05:40:19.626Z,9.430355
2024-04-06T05:41:19.626Z,9.430346
2024-04-06T05:42:19.630Z,9.430399
2024-04-06T05:43:19.613Z,9.430363
2024-04-06T05:44:19.606Z,9.430400
2024-04-06T05:45:19.631Z,9.430417
2024-04-06T05:46:19.575Z,9.430404
2024-04-06T05:47:19.582Z,9.430407
2024-04-06T05:48:19.572Z,9.430387
2024-04-06T05:49:19.527Z,9.430351
2024-04-06T05:50:19.544Z,9.430325
2024-04-06T05:51:19.531Z,9.430338
2024-04-06T05:52:19.804Z,9.430346
2024-04-06T05:53:19.512Z,9.430361
2024-04-06T05:54:19.543Z,9.430365
2024-04-06T05:55:19.509Z,9.430400
2024-04-06T05:56:19.447Z,9.430392
2024-04-06T05:57:19.463Z,9.430408
2024-04-06T05:58:19.446Z,9.430445
2024-04-06T05:59:19.435Z,9.430393
2024-04-06T06:00:19.443Z,9.430415
2024-04-06T06:01:19.443Z,9.430389
2024-04-06T06:02:19.414Z,9.430406
2024-04-06T06:03:19.416Z,9.430402
2024-04-06T06:04:19.411Z,9.430379
2024-04-06T06:05:19.363Z,9.430397
2024-04-06T06:06:19.389Z,9.430363
2024-04-06T06:07:19.394Z,9.430355
2024-04-06T06:08:19.342Z,9.430408
2024-04-06T06:09:19.308Z,9.430364
2024-04-06T06:10:19.300Z,9.430393
2024-04-06T06:11:19.291Z,9.430395
2024-04-06T06:12:19.380Z,9.430398
2024-04-06T06:13:19.269Z,9.430396
2024-04-06T06:14:21.823Z,9.430398
2024-04-06T06:15:20.299Z,9.430387
2024-04-06T06:16:20.107Z,9.430375
2024-04-06T06:17:19.274Z,9.430352
2024-04-06T06:18:19.237Z,9.430357
2024-04-06T06:19:19.227Z,9.430370
2024-04-06T06:20:19.205Z,9.430387
2024-04-06T06:21:19.185Z,9.430364
2024-04-06T06:22:19.184Z,9.430386
2024-04-06T06:23:19.167Z,9.430383
2024-04-06T06:24:19.136Z,9.430392
2024-04-06T06:25:20.238Z,9.430407
2024-04-06T06:26:19.154Z,9.430426
2024-04-06T06:27:19.123Z,9.430399
2024-04-06T06:28:19.124Z,9.430406
2024-04-06T06:29:19.119Z,9.430408
2024-04-06T06:30:19.103Z,9.430398
2024-04-06T06:31:19.138Z,9.430420
2024-04-06T06:32:19.086Z,9.430379
2024-04-06T06:33:19.101Z,9.430398
2024-04-06T06:34:19.094Z,9.430388
2024-04-06T06:35:19.038Z,9.430374
2024-04-06T06:38:20.028Z,9.430392
2024-04-06T06:41:20.608Z,9.430422
2024-04-06T06:42:18.991Z,9.430405
2024-04-06T06:43:18.974Z,9.430380
2024-04-06T06:44:18.961Z,9.430394
2024-04-06T06:45:18.942Z,9.430369
2024-04-06T06:46:18.940Z,9.430400
2024-04-06T06:47:18.946Z,9.430394
2024-04-06T06:48:18.883Z,9.430408
2024-04-06T06:49:18.894Z,9.430372
2024-04-06T06:50:18.901Z,9.430322
2024-04-06T06:51:18.937Z,9.430348
2024-04-06T06:52:18.878Z,9.430344
2024-04-06T06:53:18.852Z,9.430392
2024-04-06T06:54:18.828Z,9.430400
2024-04-06T06:55:18.867Z,9.430413
2024-04-06T06:56:18.816Z,9.430402
2024-04-06T06:57:18.831Z,9.430409
2024-04-06T06:58:18.802Z,9.430382
2024-04-06T06:59:18.897Z,9.430337
2024-04-06T07:00:20.534Z,9.430376
2024-04-06T07:01:19.754Z,9.430357
2024-04-06T07:02:18.771Z,9.430366
2024-04-06T07:03:18.752Z,9.430319
2024-04-06T07:04:18.770Z,9.430341
2024-04-06T07:05:18.756Z,9.430290
2024-04-06T07:07:06.685Z,9.430320
2024-04-06T07:07:20.726Z,9.430334
2024-04-06T07:08:18.728Z,9.430389
2024-04-06T07:09:18.703Z,9.430297
2024-04-06T07:10:18.731Z,9.430408
2024-04-06T07:11:18.728Z,9.430388
2024-04-06T07:12:18.657Z,9.430394
2024-04-06T07:13:18.662Z,9.430409
2024-04-06T07:14:18.622Z,9.430391
2024-04-06T07:15:18.631Z,9.430363
2024-04-06T07:16:18.585Z,9.430392
2024-04-06T07:17:18.576Z,9.430377
2024-04-06T07:18:18.600Z,9.430402
2024-04-06T07:19:18.573Z,9.430377
2024-04-06T07:20:18.551Z,9.430347
2024-04-06T07:21:18.580Z,9.430368
2024-04-06T07:22:18.549Z,9.430382
2024-04-06T07:23:18.508Z,9.430366
2024-04-06T07:24:18.503Z,9.430365
2024-04-06T07:25:18.500Z,9.430393
2024-04-06T07:26:18.485Z,9.430405
2024-04-06T07:27:18.482Z,9.430382
2024-04-06T07:28:18.494Z,9.430373
2024-04-06T07:29:18.462Z,9.430393
2024-04-06T07:30:18.447Z,9.430402
2024-04-06T07:31:18.473Z,9.430408
2024-04-06T07:32:18.441Z,9.430394
2024-04-06T07:33:18.430Z,9.430412
2024-04-06T07:34:18.397Z,9.430412
2024-04-06T07:35:18.376Z,9.430420
2024-04-06T07:36:18.427Z,9.430411
2024-04-06T07:37:18.422Z,9.430367
2024-04-06T07:38:20.617Z,9.430406
2024-04-06T07:39:20.174Z,9.430405
2024-04-06T07:40:20.710Z,9.430406
2024-04-06T07:41:18.350Z,9.430379
2024-04-06T07:42:18.377Z,9.430371
2024-04-06T07:43:18.352Z,9.430354
2024-04-06T07:44:18.324Z,9.430353
2024-04-06T07:45:18.309Z,9.430344
2024-04-06T07:46:18.336Z,9.430354
2024-04-06T07:47:18.269Z,9.430330
2024-04-06T07:48:18.322Z,9.430331
2024-04-06T07:49:18.264Z,9.430332
2024-04-06T07:50:18.242Z,9.430341
2024-04-06T07:51:18.211Z,9.430305
2024-04-06T07:52:18.223Z,9.430312
2024-04-06T07:53:18.211Z,9.430363
2024-04-06T07:54:18.223Z,9.430343
2024-04-06T07:55:18.181Z,9.430365
2024-04-06T07:56:18.164Z,9.430365
2024-04-06T07:57:18.140Z,9.430330
2024-04-06T07:58:18.188Z,9.430295
2024-04-06T07:59:18.137Z,9.430356
2024-04-06T08:00:18.152Z,9.430350
2024-04-06T08:01:18.140Z,9.430330
2024-04-06T08:02:18.100Z,9.430372
2024-04-06T08:03:18.130Z,9.430356
2024-04-06T08:04:18.101Z,9.430352
2024-04-06T08:05:18.089Z,9.430364
2024-04-06T08:06:18.208Z,9.430333
2024-04-06T08:07:18.103Z,9.430344
2024-04-06T08:08:18.104Z,9.430364
2024-04-06T08:09:18.024Z,9.430304
2024-04-06T08:10:19.058Z,9.430321
2024-04-06T08:11:18.027Z,9.430330
2024-04-06T08:12:18.025Z,9.430304
2024-04-06T08:13:18.018Z,9.430297
2024-04-06T08:14:25.029Z,9.430339
2024-04-06T08:15:18.982Z,9.430368
2024-04-06T08:16:18.974Z,9.430380
2024-04-06T08:17:17.934Z,9.430353
2024-04-06T08:18:17.989Z,9.430356
2024-04-06T08:19:17.936Z,9.430344
2024-04-06T08:20:17.962Z,9.430333
2024-04-06T08:21:17.910Z,9.430344
2024-04-06T08:22:17.887Z,9.430356
2024-04-06T08:23:17.903Z,9.430369
2024-04-06T08:24:17.862Z,9.430354
2024-04-06T08:25:17.915Z,9.430344
2024-04-06T08:26:17.867Z,9.430320
2024-04-06T08:27:17.918Z,9.430343
2024-04-06T08:28:17.972Z,9.430326
2024-04-06T08:29:17.919Z,9.430346
2024-04-06T08:30:17.912Z,9.430328
2024-04-06T08:31:17.859Z,9.430354
2024-04-06T08:32:17.838Z,9.430378
2024-04-06T08:33:17.783Z,9.430325
2024-04-06T08:34:17.843Z,9.430307
2024-04-06T08:35:18.048Z,9.430320
2024-04-06T08:36:18.110Z,9.430347
2024-04-06T08:37:18.059Z,9.430362
2024-04-06T08:38:17.764Z,9.430323
2024-04-06T08:39:17.838Z,9.430294
2024-04-06T08:40:17.785Z,9.430307
2024-04-06T08:41:17.800Z,9.430285
2024-04-06T08:42:17.743Z,9.430320
2024-04-06T08:43:17.764Z,9.430315
2024-04-06T08:44:17.724Z,9.430346
2024-04-06T08:45:17.783Z,9.430397
2024-04-06T08:46:17.679Z,9.430366
2024-04-06T08:47:17.731Z,9.430300
2024-04-06T08:48:17.722Z,9.430312
2024-04-06T08:49:17.759Z,9.430353
2024-04-06T08:50:17.641Z,9.430394
2024-04-06T08:51:17.663Z,9.430378
2024-04-06T08:52:17.775Z,9.430342
2024-04-06T08:53:17.595Z,9.430342
2024-04-06T08:54:17.794Z,9.430365
2024-04-06T08:55:17.658Z,9.430359
2024-04-06T08:56:17.536Z,9.430279
2024-04-06T08:57:17.792Z,9.430322
2024-04-06T08:58:17.631Z,9.430306
2024-04-06T08:59:17.614Z,9.430340
2024-04-06T09:00:17.654Z,9.430310
2024-04-06T09:01:17.589Z,9.430334
2024-04-06T09:02:17.615Z,9.430338
2024-04-06T09:03:17.516Z,9.430323
2024-04-06T09:04:17.548Z,9.430330
2024-04-06T09:05:17.453Z,9.430331
2024-04-06T09:06:17.740Z,9.430346
2024-04-06T09:07:17.502Z,9.430365
2024-04-06T09:08:18.054Z,9.430380
2024-04-06T09:09:17.557Z,9.430350
2024-04-06T09:10:17.449Z,9.430348
2024-04-06T09:11:17.817Z,9.430363
2024-04-06T09:12:17.415Z,9.430364
2024-04-06T09:13:18.136Z,9.430366
2024-04-06T09:14:17.396Z,9.430379
2024-04-06T09:15:17.563Z,9.430375
2024-04-06T09:16:17.411Z,9.430381
2024-04-06T09:17:17.369Z,9.430386
2024-04-06T09:18:17.429Z,9.430417
2024-04-06T09:19:17.441Z,9.430387
2024-04-06T09:20:17.300Z,9.430346
2024-04-06T09:21:17.350Z,9.430395
2024-04-06T09:22:17.447Z,9.430421
2024-04-06T09:23:17.360Z,9.430300
2024-04-06T09:24:17.862Z,9.430337
2024-04-06T09:25:17.439Z,9.430363
2024-04-06T09:26:17.243Z,9.430374
2024-04-06T09:27:17.294Z,9.430345
2024-04-06T09:28:17.431Z,9.430384
2024-04-06T09:29:17.258Z,9.430431
2024-04-06T09:30:17.482Z,9.430403
2024-04-06T09:31:17.238Z,9.430388
2024-04-06T09:32:17.229Z,9.430430
2024-04-06T09:33:17.238Z,9.430350
2024-04-06T09:34:17.227Z,9.430376
2024-04-06T09:35:17.150Z,9.430364
2024-04-06T09:36:17.206Z,9.430357
2024-04-06T09:37:17.381Z,9.430379
2024-04-06T09:38:17.167Z,9.430347
2024-04-06T09:39:17.139Z,9.430326
2024-04-06T09:40:17.208Z,9.430345
2024-04-06T09:41:17.338Z,9.430331
2024-04-06T09:42:17.100Z,9.430348
2024-04-06T09:43:17.119Z,9.430382
2024-04-06T09:44:17.067Z,9.430375
2024-04-06T09:45:17.049Z,9.430365
2024-04-06T09:46:17.127Z,9.430355
2024-04-06T09:47:17.087Z,9.430327
2024-04-06T09:48:17.028Z,9.430318
2024-04-06T09:49:17.138Z,9.430337
2024-04-06T09:50:18.060Z,9.430338
2024-04-06T09:51:17.053Z,9.430348
2024-04-06T09:52:17.081Z,9.430343
2024-04-06T09:53:16.982Z,9.430344
2024-04-06T09:54:16.993Z,9.430375
2024-04-06T09:55:17.092Z,9.430325
2024-04-06T09:56:17.060Z,9.430338
2024-04-06T09:57:16.982Z,9.430429
2024-04-06T09:58:17.058Z,9.430506
2024-04-06T09:59:16.902Z,9.430445
2024-04-06T10:00:16.960Z,9.430387
2024-04-06T10:01:16.943Z,9.430394
2024-04-06T10:02:16.947Z,9.430282
2024-04-06T10:03:16.942Z,9.430324
2024-04-06T10:04:16.903Z,9.430419
2024-04-06T10:05:16.840Z,9.430354
2024-04-06T10:06:16.874Z,9.430374
2024-04-06T10:07:16.872Z,9.430368
2024-04-06T10:08:16.890Z,9.430367
2024-04-06T10:09:16.844Z,9.430345
2024-04-06T10:10:16.952Z,9.430348
2024-04-06T10:11:16.793Z,9.430320
2024-04-06T10:12:16.771Z,9.430398
2024-04-06T10:13:16.851Z,9.430390
2024-04-06T10:14:19.316Z,9.430386
2024-04-06T10:15:17.821Z,9.430342
2024-04-06T10:16:16.791Z,9.430351
2024-04-06T10:17:16.761Z,9.430351
2024-04-06T10:18:16.727Z,9.430317
2024-04-06T10:19:16.755Z,9.430360
2024-04-06T10:20:16.706Z,9.430326
2024-04-06T10:21:16.675Z,9.430337
2024-04-06T10:22:16.786Z,9.430288
2024-04-06T10:23:16.682Z,9.430308
2024-04-06T10:24:16.672Z,9.430356
2024-04-06T10:25:16.742Z,9.430280
2024-04-06T10:26:16.680Z,9.430303
2024-04-06T10:27:16.684Z,9.430352
2024-04-06T10:28:16.687Z,9.430340
2024-04-06T10:29:17.164Z,9.430344
2024-04-06T10:30:16.622Z,9.430363
2024-04-06T10:31:16.645Z,9.430371
2024-04-06T10:32:16.636Z,9.430351
2024-04-06T10:33:16.635Z,9.430340
2024-04-06T10:34:16.628Z,9.430350
2024-04-06T10:35:16.611Z,9.430326
2024-04-06T10:36:16.545Z,9.430412
2024-04-06T10:37:16.585Z,9.430433
2024-04-06T10:38:16.524Z,9.430362
2024-04-06T10:39:16.635Z,9.430362
2024-04-06T10:40:16.546Z,9.430314
2024-04-06T10:41:16.674Z,9.430354
2024-04-06T10:42:16.481Z,9.430321
2024-04-06T10:43:16.481Z,9.430323
2024-04-06T10:44:16.453Z,9.430333
2024-04-06T10:45:16.466Z,9.430320
2024-04-06T10:46:16.477Z,9.430341
2024-04-06T10:47:16.570Z,9.430362
2024-04-06T10:48:16.433Z,9.430343
2024-04-06T10:49:16.449Z,9.430334
2024-04-06T10:50:16.391Z,9.430348
2024-04-06T10:51:16.493Z,9.430331
2024-04-06T10:52:16.578Z,9.430282
2024-04-06T10:53:16.389Z,9.430336
2024-04-06T10:54:16.460Z,9.430366
2024-04-06T10:55:16.467Z,9.430376
2024-04-06T10:56:16.371Z,9.430348
2024-04-06T10:57:16.386Z,9.430326
2024-04-06T10:58:16.377Z,9.430354
2024-04-06T10:59:16.488Z,9.430351
2024-04-06T11:00:16.286Z,9.430368
2024-04-06T11:01:16.296Z,9.430383
2024-04-06T11:02:16.287Z,9.430342
2024-04-06T11:03:16.317Z,9.430351
2024-04-06T11:04:16.334Z,9.430336
2024-04-06T11:05:16.240Z,9.430369
2024-04-06T11:06:16.249Z,9.430344
2024-04-06T11:07:16.263Z,9.430344
2024-04-06T11:08:16.265Z,9.430334
2024-04-06T11:09:16.212Z,9.430338
2024-04-06T11:10:16.255Z,9.430365
2024-04-06T11:11:16.265Z,9.430336
2024-04-06T11:12:16.273Z,9.430312
2024-04-06T11:13:16.230Z,9.430310
2024-04-06T11:14:16.255Z,9.430327
2024-04-06T11:15:16.200Z,9.430354
2024-04-06T11:16:16.212Z,9.430351
2024-04-06T11:17:16.123Z,9.430320
2024-04-06T11:18:16.127Z,9.430305
2024-04-06T11:19:16.094Z,9.430341
2024-04-06T11:20:16.100Z,9.430341
2024-04-06T11:21:16.074Z,9.430373
2024-04-06T11:22:17.098Z,9.430387
2024-04-06T11:23:16.116Z,9.430355
2024-04-06T11:24:16.066Z,9.430348
2024-04-06T11:25:16.071Z,9.430363
2024-04-06T11:26:16.046Z,9.430354
2024-04-06T11:27:16.055Z,9.430321
2024-04-06T11:28:16.079Z,9.430316
2024-04-06T11:29:16.008Z,9.430347
2024-04-06T11:30:16.000Z,9.430337
2024-04-06T11:31:16.055Z,9.430419
2024-04-06T11:32:16.004Z,9.430402
2024-04-06T11:33:15.997Z,9.430379
2024-04-06T11:34:16.029Z,9.430338
2024-04-06T11:35:15.990Z,9.430304
2024-04-06T11:36:15.976Z,9.430342
2024-04-06T11:37:15.956Z,9.430324
2024-04-06T11:38:16.014Z,9.430328
2024-04-06T11:39:16.013Z,9.430302
2024-04-06T11:40:15.989Z,9.430339
2024-04-06T11:41:15.865Z,9.430334
2024-04-06T11:42:15.969Z,9.430253
2024-04-06T11:43:15.905Z,9.430301
2024-04-06T11:44:15.899Z,9.430260
2024-04-06T11:45:15.872Z,9.430350
2024-04-06T11:46:15.853Z,9.430346
2024-04-06T11:47:15.937Z,9.430333
2024-04-06T11:48:15.900Z,9.430362